sensor_id;sensor_type;location;lat;lon;timestamp;P1;durP1;ratioP1;P2;durP2;ratioP2
6223;SDS011;3145;42.726;23.342;2022-09-03T00:02:32;7.60;;;6.83;;
6223;SDS011;3145;42.726;23.342;2022-09-03T00:05:04;7.50;;;6.90;;
6223;SDS011;3145;42.726;23.342;2022-09-03T00:07:41;7.63;;;6.27;;
6223;SDS011;3145;42.726;23.342;2022-09-03T00:10:15;7.97;;;7.20;;
6223;SDS011;3145;42.726;23.342;2022-09-03T00:12:47;8.33;;;7.17;;
6223;SDS011;3145;42.726;23.342;2022-09-03T00:15:18;7.83;;;6.20;;
6223;SDS011;3145;42.726;23.342;2022-09-03T00:17:48;8.90;;;7.40;;
6223;SDS011;3145;42.726;23.342;2022-09-03T00:20:19;8.57;;;6.73;;
6223;SDS011;3145;42.726;23.342;2022-09-03T00:22:52;8.23;;;7.40;;
6223;SDS011;3145;42.726;23.342;2022-09-03T00:25:26;6.93;;;6.40;;
6223;SDS011;3145;42.726;23.342;2022-09-03T00:27:59;7.23;;;6.63;;
6223;SDS011;3145;42.726;23.342;2022-09-03T00:30:31;7.53;;;6.83;;
6223;SDS011;3145;42.726;23.342;2022-09-03T00:33:00;7.07;;;6.37;;
6223;SDS011;3145;42.726;23.342;2022-09-03T00:35:36;8.53;;;7.83;;
6223;SDS011;3145;42.726;23.342;2022-09-03T00:38:08;8.50;;;7.70;;
6223;SDS011;3145;42.726;23.342;2022-09-03T00:40:41;7.97;;;7.20;;
6223;SDS011;3145;42.726;23.342;2022-09-03T00:43:20;8.33;;;7.57;;
6223;SDS011;3145;42.726;23.342;2022-09-03T00:46:00;9.80;;;8.17;;
6223;SDS011;3145;42.726;23.342;2022-09-03T00:48:38;8.93;;;7.70;;
6223;SDS011;3145;42.726;23.342;2022-09-03T00:51:16;8.73;;;7.40;;
6223;SDS011;3145;42.726;23.342;2022-09-03T00:53:53;7.40;;;6.70;;
6223;SDS011;3145;42.726;23.342;2022-09-03T00:56:29;7.10;;;6.27;;
6223;SDS011;3145;42.726;23.342;2022-09-03T00:59:10;6.50;;;5.90;;
6223;SDS011;3145;42.726;23.342;2022-09-03T01:01:47;6.90;;;6.07;;
6223;SDS011;3145;42.726;23.342;2022-09-03T01:04:27;6.97;;;6.17;;
6223;SDS011;3145;42.726;23.342;2022-09-03T01:07:02;8.70;;;5.27;;
6223;SDS011;3145;42.726;23.342;2022-09-03T01:09:43;6.60;;;6.00;;
6223;SDS011;3145;42.726;23.342;2022-09-03T01:12:20;8.17;;;7.37;;
6223;SDS011;3145;42.726;23.342;2022-09-03T01:15:02;7.10;;;6.50;;
6223;SDS011;3145;42.726;23.342;2022-09-03T01:17:51;7.10;;;6.47;;
6223;SDS011;3145;42.726;23.342;2022-09-03T01:20:40;7.50;;;6.60;;
6223;SDS011;3145;42.726;23.342;2022-09-03T01:26:48;6.93;;;6.23;;
6223;SDS011;3145;42.726;23.342;2022-09-03T01:29:32;6.33;;;5.43;;
6223;SDS011;3145;42.726;23.342;2022-09-03T01:32:06;6.40;;;5.80;;
6223;SDS011;3145;42.726;23.342;2022-09-03T01:34:42;9.53;;;5.77;;
6223;SDS011;3145;42.726;23.342;2022-09-03T01:37:19;6.27;;;5.57;;
6223;SDS011;3145;42.726;23.342;2022-09-03T01:39:57;7.17;;;6.43;;
6223;SDS011;3145;42.726;23.342;2022-09-03T01:42:36;6.43;;;5.80;;
6223;SDS011;3145;42.726;23.342;2022-09-03T01:45:14;7.80;;;6.37;;
6223;SDS011;3145;42.726;23.342;2022-09-03T01:48:00;6.63;;;6.03;;
6223;SDS011;3145;42.726;23.342;2022-09-03T01:50:40;6.53;;;5.93;;
6223;SDS011;3145;42.726;23.342;2022-09-03T01:53:14;7.10;;;6.13;;
6223;SDS011;3145;42.726;23.342;2022-09-03T01:55:55;10.33;;;6.10;;
6223;SDS011;3145;42.726;23.342;2022-09-03T01:58:34;6.87;;;6.20;;
6223;SDS011;3145;42.726;23.342;2022-09-03T02:01:06;7.97;;;6.83;;
6223;SDS011;3145;42.726;23.342;2022-09-03T02:03:39;11.70;;;6.57;;
6223;SDS011;3145;42.726;23.342;2022-09-03T02:06:09;8.67;;;6.97;;
6223;SDS011;3145;42.726;23.342;2022-09-03T02:08:37;7.17;;;6.57;;
6223;SDS011;3145;42.726;23.342;2022-09-03T02:11:04;6.50;;;5.87;;
6223;SDS011;3145;42.726;23.342;2022-09-03T02:13:35;9.93;;;6.60;;
6223;SDS011;3145;42.726;23.342;2022-09-03T02:16:09;9.87;;;6.93;;
6223;SDS011;3145;42.726;23.342;2022-09-03T02:18:40;8.90;;;7.70;;
6223;SDS011;3145;42.726;23.342;2022-09-03T02:21:10;8.27;;;5.97;;
6223;SDS011;3145;42.726;23.342;2022-09-03T02:23:38;8.13;;;7.00;;
6223;SDS011;3145;42.726;23.342;2022-09-03T02:26:06;7.10;;;6.33;;
6223;SDS011;3145;42.726;23.342;2022-09-03T02:28:35;11.73;;;6.77;;
6223;SDS011;3145;42.726;23.342;2022-09-03T02:31:02;8.10;;;6.67;;
6223;SDS011;3145;42.726;23.342;2022-09-03T02:33:34;7.57;;;6.77;;
6223;SDS011;3145;42.726;23.342;2022-09-03T02:36:02;7.93;;;6.50;;
6223;SDS011;3145;42.726;23.342;2022-09-03T02:38:31;8.57;;;6.93;;
6223;SDS011;3145;42.726;23.342;2022-09-03T02:40:58;9.03;;;7.70;;
6223;SDS011;3145;42.726;23.342;2022-09-03T02:43:26;8.33;;;7.40;;
6223;SDS011;3145;42.726;23.342;2022-09-03T02:46:00;8.13;;;7.30;;
6223;SDS011;3145;42.726;23.342;2022-09-03T02:48:28;7.80;;;7.00;;
6223;SDS011;3145;42.726;23.342;2022-09-03T02:50:56;8.10;;;7.30;;
6223;SDS011;3145;42.726;23.342;2022-09-03T02:53:23;10.33;;;7.73;;
6223;SDS011;3145;42.726;23.342;2022-09-03T02:55:52;9.27;;;8.27;;
6223;SDS011;3145;42.726;23.342;2022-09-03T02:58:23;8.03;;;6.90;;
6223;SDS011;3145;42.726;23.342;2022-09-03T03:00:50;10.10;;;7.13;;
6223;SDS011;3145;42.726;23.342;2022-09-03T03:03:17;9.40;;;8.40;;
6223;SDS011;3145;42.726;23.342;2022-09-03T03:05:44;9.20;;;7.90;;
6223;SDS011;3145;42.726;23.342;2022-09-03T03:08:15;9.13;;;7.60;;
6223;SDS011;3145;42.726;23.342;2022-09-03T03:10:45;8.33;;;7.37;;
6223;SDS011;3145;42.726;23.342;2022-09-03T03:13:13;9.30;;;8.37;;
6223;SDS011;3145;42.726;23.342;2022-09-03T03:15:40;11.17;;;9.00;;
6223;SDS011;3145;42.726;23.342;2022-09-03T03:18:08;10.80;;;7.20;;
6223;SDS011;3145;42.726;23.342;2022-09-03T03:20:36;10.30;;;8.33;;
6223;SDS011;3145;42.726;23.342;2022-09-03T03:23:03;11.40;;;9.27;;
6223;SDS011;3145;42.726;23.342;2022-09-03T03:25:32;10.23;;;7.80;;
6223;SDS011;3145;42.726;23.342;2022-09-03T03:27:58;10.27;;;8.63;;
6223;SDS011;3145;42.726;23.342;2022-09-03T03:30:26;10.17;;;8.27;;
6223;SDS011;3145;42.726;23.342;2022-09-03T03:32:53;8.73;;;7.73;;
6223;SDS011;3145;42.726;23.342;2022-09-03T03:35:20;11.77;;;7.70;;
6223;SDS011;3145;42.726;23.342;2022-09-03T03:37:47;11.40;;;7.80;;
6223;SDS011;3145;42.726;23.342;2022-09-03T03:40:14;10.40;;;8.60;;
6223;SDS011;3145;42.726;23.342;2022-09-03T03:42:43;12.37;;;8.57;;
6223;SDS011;3145;42.726;23.342;2022-09-03T03:45:09;11.37;;;8.67;;
6223;SDS011;3145;42.726;23.342;2022-09-03T03:47:36;13.40;;;8.13;;
6223;SDS011;3145;42.726;23.342;2022-09-03T03:50:03;12.70;;;8.00;;
6223;SDS011;3145;42.726;23.342;2022-09-03T03:52:31;10.50;;;7.83;;
6223;SDS011;3145;42.726;23.342;2022-09-03T03:54:57;11.00;;;8.10;;
6223;SDS011;3145;42.726;23.342;2022-09-03T03:57:24;10.40;;;8.63;;
6223;SDS011;3145;42.726;23.342;2022-09-03T03:59:52;9.63;;;8.40;;
6223;SDS011;3145;42.726;23.342;2022-09-03T04:02:19;10.40;;;8.43;;
6223;SDS011;3145;42.726;23.342;2022-09-03T04:04:46;8.90;;;8.00;;
6223;SDS011;3145;42.726;23.342;2022-09-03T04:07:12;10.00;;;8.20;;
6223;SDS011;3145;42.726;23.342;2022-09-03T04:09:39;11.93;;;8.40;;
6223;SDS011;3145;42.726;23.342;2022-09-03T04:12:06;13.10;;;8.67;;
6223;SDS011;3145;42.726;23.342;2022-09-03T04:14:33;9.67;;;8.20;;
6223;SDS011;3145;42.726;23.342;2022-09-03T04:17:01;9.80;;;7.50;;
6223;SDS011;3145;42.726;23.342;2022-09-03T04:19:28;9.70;;;8.33;;
6223;SDS011;3145;42.726;23.342;2022-09-03T04:21:55;10.10;;;7.83;;
6223;SDS011;3145;42.726;23.342;2022-09-03T04:24:22;9.33;;;8.10;;
6223;SDS011;3145;42.726;23.342;2022-09-03T04:26:49;8.97;;;7.20;;
6223;SDS011;3145;42.726;23.342;2022-09-03T04:29:18;9.20;;;7.30;;
6223;SDS011;3145;42.726;23.342;2022-09-03T04:31:45;10.77;;;8.13;;
6223;SDS011;3145;42.726;23.342;2022-09-03T04:34:27;11.53;;;8.13;;
6223;SDS011;3145;42.726;23.342;2022-09-03T04:36:54;9.13;;;7.87;;
6223;SDS011;3145;42.726;23.342;2022-09-03T04:39:22;9.20;;;7.53;;
6223;SDS011;3145;42.726;23.342;2022-09-03T04:41:49;9.53;;;7.67;;
6223;SDS011;3145;42.726;23.342;2022-09-03T04:44:15;9.80;;;7.80;;
6223;SDS011;3145;42.726;23.342;2022-09-03T04:46:42;9.93;;;7.97;;
6223;SDS011;3145;42.726;23.342;2022-09-03T04:49:11;11.10;;;7.53;;
6223;SDS011;3145;42.726;23.342;2022-09-03T04:51:40;10.20;;;8.47;;
6223;SDS011;3145;42.726;23.342;2022-09-03T04:54:07;10.50;;;8.47;;
6223;SDS011;3145;42.726;23.342;2022-09-03T04:56:34;8.97;;;7.47;;
6223;SDS011;3145;42.726;23.342;2022-09-03T04:59:02;11.13;;;8.60;;
6223;SDS011;3145;42.726;23.342;2022-09-03T05:01:31;11.27;;;8.30;;
6223;SDS011;3145;42.726;23.342;2022-09-03T05:03:59;8.53;;;7.63;;
6223;SDS011;3145;42.726;23.342;2022-09-03T05:06:26;13.17;;;8.47;;
6223;SDS011;3145;42.726;23.342;2022-09-03T05:08:56;9.50;;;8.27;;
6223;SDS011;3145;42.726;23.342;2022-09-03T05:11:24;11.03;;;8.47;;
6223;SDS011;3145;42.726;23.342;2022-09-03T05:13:52;11.27;;;8.27;;
6223;SDS011;3145;42.726;23.342;2022-09-03T05:16:21;9.17;;;7.53;;
6223;SDS011;3145;42.726;23.342;2022-09-03T05:18:50;8.90;;;7.63;;
6223;SDS011;3145;42.726;23.342;2022-09-03T05:21:18;10.50;;;8.73;;
6223;SDS011;3145;42.726;23.342;2022-09-03T05:23:46;9.13;;;8.17;;
6223;SDS011;3145;42.726;23.342;2022-09-03T05:26:16;11.23;;;8.47;;
6223;SDS011;3145;42.726;23.342;2022-09-03T05:28:44;14.10;;;8.50;;
6223;SDS011;3145;42.726;23.342;2022-09-03T05:31:11;8.57;;;7.63;;
6223;SDS011;3145;42.726;23.342;2022-09-03T05:33:41;10.60;;;9.03;;
6223;SDS011;3145;42.726;23.342;2022-09-03T05:36:09;10.07;;;9.07;;
6223;SDS011;3145;42.726;23.342;2022-09-03T05:38:37;11.33;;;10.13;;
6223;SDS011;3145;42.726;23.342;2022-09-03T05:41:05;11.23;;;8.97;;
6223;SDS011;3145;42.726;23.342;2022-09-03T05:43:34;10.27;;;8.67;;
6223;SDS011;3145;42.726;23.342;2022-09-03T05:46:02;8.77;;;7.93;;
6223;SDS011;3145;42.726;23.342;2022-09-03T05:48:30;12.93;;;7.87;;
6223;SDS011;3145;42.726;23.342;2022-09-03T05:50:58;9.47;;;8.03;;
6223;SDS011;3145;42.726;23.342;2022-09-03T05:53:26;8.70;;;7.70;;
6223;SDS011;3145;42.726;23.342;2022-09-03T05:55:56;8.43;;;7.63;;
6223;SDS011;3145;42.726;23.342;2022-09-03T05:58:24;11.07;;;9.80;;
6223;SDS011;3145;42.726;23.342;2022-09-03T06:00:52;10.17;;;7.90;;
6223;SDS011;3145;42.726;23.342;2022-09-03T06:03:19;10.50;;;7.73;;
6223;SDS011;3145;42.726;23.342;2022-09-03T06:05:48;8.27;;;7.43;;
6223;SDS011;3145;42.726;23.342;2022-09-03T06:08:16;9.53;;;7.63;;
6223;SDS011;3145;42.726;23.342;2022-09-03T06:10:43;11.17;;;7.50;;
6223;SDS011;3145;42.726;23.342;2022-09-03T06:13:10;8.73;;;7.80;;
6223;SDS011;3145;42.726;23.342;2022-09-03T06:15:37;12.83;;;7.20;;
6223;SDS011;3145;42.726;23.342;2022-09-03T06:18:05;8.23;;;7.07;;
6223;SDS011;3145;42.726;23.342;2022-09-03T06:20:31;12.83;;;11.57;;
6223;SDS011;3145;42.726;23.342;2022-09-03T06:22:58;14.70;;;12.97;;
6223;SDS011;3145;42.726;23.342;2022-09-03T06:25:25;13.77;;;12.37;;
6223;SDS011;3145;42.726;23.342;2022-09-03T06:27:52;13.83;;;11.13;;
6223;SDS011;3145;42.726;23.342;2022-09-03T06:30:19;10.03;;;8.60;;
6223;SDS011;3145;42.726;23.342;2022-09-03T06:32:48;12.23;;;11.03;;
6223;SDS011;3145;42.726;23.342;2022-09-03T06:35:17;13.83;;;12.20;;
6223;SDS011;3145;42.726;23.342;2022-09-03T06:37:44;12.20;;;11.10;;
6223;SDS011;3145;42.726;23.342;2022-09-03T06:40:11;8.67;;;7.47;;
6223;SDS011;3145;42.726;23.342;2022-09-03T06:42:38;9.10;;;8.20;;
6223;SDS011;3145;42.726;23.342;2022-09-03T06:45:06;9.07;;;8.17;;
6223;SDS011;3145;42.726;23.342;2022-09-03T06:47:34;8.27;;;7.57;;
6223;SDS011;3145;42.726;23.342;2022-09-03T06:50:00;8.10;;;7.43;;
6223;SDS011;3145;42.726;23.342;2022-09-03T06:52:29;9.03;;;8.13;;
6223;SDS011;3145;42.726;23.342;2022-09-03T06:54:55;8.63;;;7.83;;
6223;SDS011;3145;42.726;23.342;2022-09-03T06:57:22;8.40;;;7.30;;
6223;SDS011;3145;42.726;23.342;2022-09-03T06:59:49;11.20;;;7.77;;
6223;SDS011;3145;42.726;23.342;2022-09-03T07:02:15;11.17;;;10.03;;
6223;SDS011;3145;42.726;23.342;2022-09-03T07:04:43;10.83;;;7.67;;
6223;SDS011;3145;42.726;23.342;2022-09-03T07:07:09;8.30;;;7.27;;
6223;SDS011;3145;42.726;23.342;2022-09-03T07:09:39;7.10;;;6.37;;
6223;SDS011;3145;42.726;23.342;2022-09-03T07:12:06;9.97;;;6.80;;
6223;SDS011;3145;42.726;23.342;2022-09-03T07:14:35;9.57;;;8.57;;
6223;SDS011;3145;42.726;23.342;2022-09-03T07:17:01;10.03;;;7.37;;
6223;SDS011;3145;42.726;23.342;2022-09-03T07:19:28;7.27;;;6.67;;
6223;SDS011;3145;42.726;23.342;2022-09-03T07:21:55;8.40;;;6.10;;
6223;SDS011;3145;42.726;23.342;2022-09-03T07:24:22;8.07;;;6.00;;
6223;SDS011;3145;42.726;23.342;2022-09-03T07:26:50;6.87;;;6.20;;
6223;SDS011;3145;42.726;23.342;2022-09-03T07:29:17;6.23;;;5.60;;
6223;SDS011;3145;42.726;23.342;2022-09-03T07:31:45;8.60;;;7.80;;
6223;SDS011;3145;42.726;23.342;2022-09-03T07:34:12;6.80;;;6.20;;
6223;SDS011;3145;42.726;23.342;2022-09-03T07:36:41;7.03;;;5.90;;
6223;SDS011;3145;42.726;23.342;2022-09-03T07:39:11;6.03;;;5.43;;
6223;SDS011;3145;42.726;23.342;2022-09-03T07:41:39;7.03;;;6.43;;
6223;SDS011;3145;42.726;23.342;2022-09-03T07:44:08;5.93;;;5.43;;
6223;SDS011;3145;42.726;23.342;2022-09-03T07:46:36;6.70;;;6.10;;
6223;SDS011;3145;42.726;23.342;2022-09-03T07:49:04;7.43;;;6.60;;
6223;SDS011;3145;42.726;23.342;2022-09-03T07:51:32;5.40;;;5.00;;
6223;SDS011;3145;42.726;23.342;2022-09-03T07:54:00;6.33;;;4.80;;
6223;SDS011;3145;42.726;23.342;2022-09-03T07:56:28;6.40;;;5.90;;
6223;SDS011;3145;42.726;23.342;2022-09-03T07:58:56;6.90;;;5.37;;
6223;SDS011;3145;42.726;23.342;2022-09-03T08:01:25;6.47;;;4.97;;
6223;SDS011;3145;42.726;23.342;2022-09-03T08:03:55;5.97;;;5.13;;
6223;SDS011;3145;42.726;23.342;2022-09-03T08:06:22;5.80;;;5.30;;
6223;SDS011;3145;42.726;23.342;2022-09-03T08:08:53;9.03;;;8.23;;
6223;SDS011;3145;42.726;23.342;2022-09-03T08:11:21;7.40;;;6.90;;
6223;SDS011;3145;42.726;23.342;2022-09-03T08:13:54;6.77;;;6.20;;
6223;SDS011;3145;42.726;23.342;2022-09-03T08:16:27;6.37;;;5.77;;
6223;SDS011;3145;42.726;23.342;2022-09-03T08:18:55;5.67;;;5.17;;
6223;SDS011;3145;42.726;23.342;2022-09-03T08:21:22;6.70;;;6.07;;
6223;SDS011;3145;42.726;23.342;2022-09-03T08:23:51;5.20;;;4.80;;
6223;SDS011;3145;42.726;23.342;2022-09-03T08:26:21;6.07;;;5.57;;
6223;SDS011;3145;42.726;23.342;2022-09-03T08:28:48;5.63;;;4.93;;
6223;SDS011;3145;42.726;23.342;2022-09-03T08:31:15;5.57;;;4.80;;
6223;SDS011;3145;42.726;23.342;2022-09-03T08:33:45;6.63;;;6.03;;
6223;SDS011;3145;42.726;23.342;2022-09-03T08:36:15;5.07;;;4.67;;
6223;SDS011;3145;42.726;23.342;2022-09-03T08:38:44;4.90;;;4.50;;
6223;SDS011;3145;42.726;23.342;2022-09-03T08:41:12;4.50;;;4.10;;
6223;SDS011;3145;42.726;23.342;2022-09-03T08:43:52;5.63;;;5.23;;
6223;SDS011;3145;42.726;23.342;2022-09-03T08:46:34;4.77;;;4.37;;
6223;SDS011;3145;42.726;23.342;2022-09-03T08:49:11;4.50;;;4.20;;
6223;SDS011;3145;42.726;23.342;2022-09-03T08:51:40;4.77;;;4.37;;
6223;SDS011;3145;42.726;23.342;2022-09-03T08:54:08;4.87;;;4.47;;
6223;SDS011;3145;42.726;23.342;2022-09-03T08:56:37;4.57;;;4.17;;
6223;SDS011;3145;42.726;23.342;2022-09-03T08:59:06;5.53;;;5.03;;
6223;SDS011;3145;42.726;23.342;2022-09-03T09:01:35;5.88;;;5.28;;
6223;SDS011;3145;42.726;23.342;2022-09-03T09:04:17;6.10;;;5.50;;
6223;SDS011;3145;42.726;23.342;2022-09-03T09:06:54;4.30;;;3.95;;
6223;SDS011;3145;42.726;23.342;2022-09-03T09:09:27;4.45;;;4.05;;
6223;SDS011;3145;42.726;23.342;2022-09-03T09:12:03;4.40;;;4.10;;
6223;SDS011;3145;42.726;23.342;2022-09-03T09:14:42;4.40;;;4.10;;
6223;SDS011;3145;42.726;23.342;2022-09-03T09:17:22;5.03;;;4.63;;
6223;SDS011;3145;42.726;23.342;2022-09-03T09:20:00;4.90;;;4.50;;
6223;SDS011;3145;42.726;23.342;2022-09-03T09:22:36;4.40;;;4.10;;
6223;SDS011;3145;42.726;23.342;2022-09-03T09:25:07;4.85;;;4.43;;
6223;SDS011;3145;42.726;23.342;2022-09-03T09:27:40;6.43;;;5.05;;
6223;SDS011;3145;42.726;23.342;2022-09-03T09:30:15;4.95;;;4.40;;
6223;SDS011;3145;42.726;23.342;2022-09-03T09:32:43;4.28;;;3.97;;
6223;SDS011;3145;42.726;23.342;2022-09-03T09:35:13;4.25;;;3.95;;
6223;SDS011;3145;42.726;23.342;2022-09-03T09:37:47;4.82;;;4.50;;
6223;SDS011;3145;42.726;23.342;2022-09-03T09:40:22;4.50;;;3.60;;
6223;SDS011;3145;42.726;23.342;2022-09-03T09:43:01;4.40;;;4.10;;
6223;SDS011;3145;42.726;23.342;2022-09-03T09:45:29;4.55;;;4.15;;
6223;SDS011;3145;42.726;23.342;2022-09-03T09:47:56;4.47;;;4.13;;
6223;SDS011;3145;42.726;23.342;2022-09-03T09:50:24;4.28;;;3.97;;
6223;SDS011;3145;42.726;23.342;2022-09-03T09:52:58;4.40;;;4.10;;
6223;SDS011;3145;42.726;23.342;2022-09-03T09:55:30;4.50;;;4.10;;
6223;SDS011;3145;42.726;23.342;2022-09-03T09:58:03;3.47;;;3.20;;
6223;SDS011;3145;42.726;23.342;2022-09-03T10:00:33;3.50;;;3.30;;
6223;SDS011;3145;42.726;23.342;2022-09-03T10:03:04;3.20;;;3.00;;
6223;SDS011;3145;42.726;23.342;2022-09-03T10:05:37;3.63;;;3.40;;
6223;SDS011;3145;42.726;23.342;2022-09-03T10:08:06;3.60;;;3.35;;
6223;SDS011;3145;42.726;23.342;2022-09-03T10:10:46;3.70;;;3.50;;
6223;SDS011;3145;42.726;23.342;2022-09-03T10:13:15;3.50;;;3.30;;
6223;SDS011;3145;42.726;23.342;2022-09-03T10:15:47;3.83;;;3.53;;
6223;SDS011;3145;42.726;23.342;2022-09-03T10:18:18;4.03;;;3.55;;
6223;SDS011;3145;42.726;23.342;2022-09-03T10:20:59;4.05;;;3.78;;
6223;SDS011;3145;42.726;23.342;2022-09-03T10:23:31;4.13;;;3.83;;
6223;SDS011;3145;42.726;23.342;2022-09-03T10:26:07;3.53;;;3.33;;
6223;SDS011;3145;42.726;23.342;2022-09-03T10:28:38;4.63;;;4.20;;
6223;SDS011;3145;42.726;23.342;2022-09-03T10:31:12;4.55;;;4.25;;
6223;SDS011;3145;42.726;23.342;2022-09-03T10:33:55;3.65;;;3.40;;
6223;SDS011;3145;42.726;23.342;2022-09-03T10:36:30;4.70;;;4.03;;
6223;SDS011;3145;42.726;23.342;2022-09-03T10:39:03;3.92;;;3.63;;
6223;SDS011;3145;42.726;23.342;2022-09-03T10:41:40;4.30;;;4.00;;
6223;SDS011;3145;42.726;23.342;2022-09-03T10:44:25;3.38;;;3.17;;
6223;SDS011;3145;42.726;23.342;2022-09-03T10:47:00;3.55;;;3.35;;
6223;SDS011;3145;42.726;23.342;2022-09-03T10:49:44;3.95;;;3.67;;
6223;SDS011;3145;42.726;23.342;2022-09-03T10:52:19;2.55;;;2.35;;
6223;SDS011;3145;42.726;23.342;2022-09-03T10:54:56;3.35;;;2.15;;
6223;SDS011;3145;42.726;23.342;2022-09-03T10:57:36;2.88;;;2.67;;
6223;SDS011;3145;42.726;23.342;2022-09-03T11:00:11;3.45;;;3.25;;
6223;SDS011;3145;42.726;23.342;2022-09-03T11:06:05;3.78;;;3.47;;
6223;SDS011;3145;42.726;23.342;2022-09-03T11:08:38;4.07;;;3.78;;
6223;SDS011;3145;42.726;23.342;2022-09-03T11:11:10;4.03;;;3.72;;
6223;SDS011;3145;42.726;23.342;2022-09-03T11:13:45;3.50;;;3.30;;
6223;SDS011;3145;42.726;23.342;2022-09-03T11:16:19;3.45;;;3.25;;
6223;SDS011;3145;42.726;23.342;2022-09-03T11:18:52;3.65;;;3.40;;
6223;SDS011;3145;42.726;23.342;2022-09-03T11:21:22;3.28;;;3.05;;
6223;SDS011;3145;42.726;23.342;2022-09-03T11:23:56;5.53;;;4.03;;
6223;SDS011;3145;42.726;23.342;2022-09-03T11:26:30;3.58;;;3.30;;
6223;SDS011;3145;42.726;23.342;2022-09-03T11:29:00;3.58;;;3.30;;
6223;SDS011;3145;42.726;23.342;2022-09-03T11:31:37;3.15;;;2.95;;
6223;SDS011;3145;42.726;23.342;2022-09-03T11:34:25;3.78;;;3.47;;
6223;SDS011;3145;42.726;23.342;2022-09-03T11:37:03;4.20;;;3.90;;
6223;SDS011;3145;42.726;23.342;2022-09-03T11:39:43;4.28;;;3.97;;
6223;SDS011;3145;42.726;23.342;2022-09-03T11:42:19;4.00;;;3.80;;
6223;SDS011;3145;42.726;23.342;2022-09-03T11:44:58;3.33;;;3.13;;
6223;SDS011;3145;42.726;23.342;2022-09-03T11:47:36;3.90;;;3.60;;
6223;SDS011;3145;42.726;23.342;2022-09-03T11:50:06;4.05;;;3.75;;
6223;SDS011;3145;42.726;23.342;2022-09-03T11:52:44;4.43;;;4.13;;
6223;SDS011;3145;42.726;23.342;2022-09-03T11:55:12;3.42;;;3.22;;
6223;SDS011;3145;42.726;23.342;2022-09-03T11:57:50;3.55;;;3.35;;
6223;SDS011;3145;42.726;23.342;2022-09-03T12:00:17;3.70;;;3.40;;
6223;SDS011;3145;42.726;23.342;2022-09-03T12:02:47;4.40;;;4.00;;
6223;SDS011;3145;42.726;23.342;2022-09-03T12:05:18;4.18;;;3.33;;
6223;SDS011;3145;42.726;23.342;2022-09-03T12:10:55;5.28;;;4.10;;
6223;SDS011;3145;42.726;23.342;2022-09-03T12:13:41;3.67;;;3.38;;
6223;SDS011;3145;42.726;23.342;2022-09-03T12:16:21;3.38;;;3.17;;
6223;SDS011;3145;42.726;23.342;2022-09-03T12:18:59;3.67;;;3.38;;
6223;SDS011;3145;42.726;23.342;2022-09-03T12:21:36;4.18;;;3.88;;
6223;SDS011;3145;42.726;23.342;2022-09-03T12:24:04;3.78;;;3.55;;
6223;SDS011;3145;42.726;23.342;2022-09-03T12:26:37;4.40;;;4.10;;
6223;SDS011;3145;42.726;23.342;2022-09-03T12:29:06;4.53;;;4.10;;
6223;SDS011;3145;42.726;23.342;2022-09-03T12:31:47;4.00;;;3.70;;
6223;SDS011;3145;42.726;23.342;2022-09-03T12:34:16;4.65;;;4.28;;
6223;SDS011;3145;42.726;23.342;2022-09-03T12:36:46;4.07;;;3.78;;
6223;SDS011;3145;42.726;23.342;2022-09-03T12:39:16;4.68;;;4.38;;
6223;SDS011;3145;42.726;23.342;2022-09-03T12:41:53;3.97;;;3.67;;
6223;SDS011;3145;42.726;23.342;2022-09-03T12:44:23;4.45;;;4.15;;
6223;SDS011;3145;42.726;23.342;2022-09-03T12:46:59;4.70;;;4.30;;
6223;SDS011;3145;42.726;23.342;2022-09-03T12:49:31;3.30;;;3.05;;
6223;SDS011;3145;42.726;23.342;2022-09-03T12:52:02;3.70;;;3.40;;
6223;SDS011;3145;42.726;23.342;2022-09-03T12:54:35;3.17;;;2.97;;
6223;SDS011;3145;42.726;23.342;2022-09-03T12:57:09;3.30;;;3.00;;
6223;SDS011;3145;42.726;23.342;2022-09-03T12:59:45;2.53;;;2.33;;
6223;SDS011;3145;42.726;23.342;2022-09-03T13:02:17;3.60;;;2.33;;
6223;SDS011;3145;42.726;23.342;2022-09-03T13:04:48;2.55;;;2.35;;
6223;SDS011;3145;42.726;23.342;2022-09-03T13:07:20;2.30;;;2.20;;
6223;SDS011;3145;42.726;23.342;2022-09-03T13:09:56;2.20;;;2.10;;
6223;SDS011;3145;42.726;23.342;2022-09-03T13:12:31;3.03;;;2.83;;
6223;SDS011;3145;42.726;23.342;2022-09-03T13:15:04;2.88;;;2.67;;
6223;SDS011;3145;42.726;23.342;2022-09-03T13:17:38;3.95;;;3.20;;
6223;SDS011;3145;42.726;23.342;2022-09-03T13:20:23;3.00;;;2.80;;
6223;SDS011;3145;42.726;23.342;2022-09-03T13:23:07;3.03;;;2.83;;
6223;SDS011;3145;42.726;23.342;2022-09-03T13:25:45;3.65;;;2.85;;
6223;SDS011;3145;42.726;23.342;2022-09-03T13:28:25;2.80;;;2.60;;
6223;SDS011;3145;42.726;23.342;2022-09-03T13:31:05;2.03;;;1.88;;
6223;SDS011;3145;42.726;23.342;2022-09-03T13:33:46;3.10;;;2.50;;
6223;SDS011;3145;42.726;23.342;2022-09-03T13:36:18;2.90;;;2.70;;
6223;SDS011;3145;42.726;23.342;2022-09-03T13:38:50;2.80;;;2.60;;
6223;SDS011;3145;42.726;23.342;2022-09-03T13:41:23;2.60;;;2.40;;
6223;SDS011;3145;42.726;23.342;2022-09-03T13:44:02;13.88;;;2.80;;
6223;SDS011;3145;42.726;23.342;2022-09-03T13:46:38;2.47;;;2.28;;
6223;SDS011;3145;42.726;23.342;2022-09-03T13:49:15;2.38;;;2.20;;
6223;SDS011;3145;42.726;23.342;2022-09-03T13:52:09;6.20;;;3.20;;
6223;SDS011;3145;42.726;23.342;2022-09-03T13:54:49;3.10;;;2.13;;
6223;SDS011;3145;42.726;23.342;2022-09-03T13:57:22;2.88;;;2.22;;
6223;SDS011;3145;42.726;23.342;2022-09-03T13:59:57;1.80;;;1.70;;
6223;SDS011;3145;42.726;23.342;2022-09-03T14:02:31;2.05;;;1.80;;
6223;SDS011;3145;42.726;23.342;2022-09-03T14:05:09;2.15;;;1.95;;
6223;SDS011;3145;42.726;23.342;2022-09-03T14:07:51;1.95;;;1.85;;
6223;SDS011;3145;42.726;23.342;2022-09-03T14:10:30;2.55;;;2.10;;
6223;SDS011;3145;42.726;23.342;2022-09-03T14:13:05;1.77;;;1.67;;
6223;SDS011;3145;42.726;23.342;2022-09-03T14:15:43;2.35;;;2.15;;
6223;SDS011;3145;42.726;23.342;2022-09-03T14:18:28;1.98;;;1.88;;
6223;SDS011;3145;42.726;23.342;2022-09-03T14:21:04;1.85;;;1.75;;
6223;SDS011;3145;42.726;23.342;2022-09-03T14:23:37;2.35;;;2.15;;
6223;SDS011;3145;42.726;23.342;2022-09-03T14:26:14;2.60;;;2.30;;
6223;SDS011;3145;42.726;23.342;2022-09-03T14:28:43;2.58;;;2.38;;
6223;SDS011;3145;42.726;23.342;2022-09-03T14:31:16;2.38;;;2.17;;
6223;SDS011;3145;42.726;23.342;2022-09-03T14:33:50;2.38;;;2.17;;
6223;SDS011;3145;42.726;23.342;2022-09-03T14:36:25;2.53;;;2.33;;
6223;SDS011;3145;42.726;23.342;2022-09-03T14:45:11;2.72;;;2.53;;
6223;SDS011;3145;42.726;23.342;2022-09-03T14:47:49;3.15;;;2.65;;
6223;SDS011;3145;42.726;23.342;2022-09-03T14:50:33;3.42;;;3.13;;
6223;SDS011;3145;42.726;23.342;2022-09-03T14:53:13;4.10;;;3.00;;
6223;SDS011;3145;42.726;23.342;2022-09-03T14:56:00;3.13;;;2.90;;
6223;SDS011;3145;42.726;23.342;2022-09-03T14:58:42;4.13;;;3.78;;
6223;SDS011;3145;42.726;23.342;2022-09-03T15:01:26;2.78;;;2.53;;
6223;SDS011;3145;42.726;23.342;2022-09-03T15:07:00;4.53;;;3.45;;
6223;SDS011;3145;42.726;23.342;2022-09-03T15:09:41;3.40;;;3.20;;
6223;SDS011;3145;42.726;23.342;2022-09-03T15:12:16;3.45;;;3.25;;
6223;SDS011;3145;42.726;23.342;2022-09-03T15:14:48;3.53;;;3.22;;
6223;SDS011;3145;42.726;23.342;2022-09-03T15:17:26;3.25;;;2.95;;
6223;SDS011;3145;42.726;23.342;2022-09-03T15:20:13;3.78;;;3.47;;
6223;SDS011;3145;42.726;23.342;2022-09-03T15:23:02;3.60;;;3.40;;
6223;SDS011;3145;42.726;23.342;2022-09-03T15:25:46;4.10;;;3.78;;
6223;SDS011;3145;42.726;23.342;2022-09-03T15:28:24;4.20;;;3.90;;
6223;SDS011;3145;42.726;23.342;2022-09-03T15:31:13;5.87;;;4.20;;
6223;SDS011;3145;42.726;23.342;2022-09-03T15:33:46;4.73;;;4.33;;
6223;SDS011;3145;42.726;23.342;2022-09-03T15:36:21;5.13;;;4.07;;
6223;SDS011;3145;42.726;23.342;2022-09-03T15:38:51;5.57;;;4.97;;
6223;SDS011;3145;42.726;23.342;2022-09-03T15:41:36;5.40;;;4.72;;
6223;SDS011;3145;42.726;23.342;2022-09-03T15:44:07;5.50;;;5.07;;
6223;SDS011;3145;42.726;23.342;2022-09-03T15:49:25;5.20;;;4.80;;
6223;SDS011;3145;42.726;23.342;2022-09-03T15:52:20;4.80;;;4.40;;